Time;durP1;ratioP1;P1;durP2;ratioP2;P2;SDS_P1;SDS_P2;PMS_P1;PMS_P2;Temp;Humidity;BMP_temperature;BMP_pressure;BME280_temperature;BME280_humidity;BME280_pressure;Samples;Min_cycle;Max_cycle;Signal;HPM_P1;HPM_P2
2023/06/12 00:01:48;;;;;;;7.50;2.80;;;;;;;22.20;54.62;99984.66;108123;1280;22024;-69
2023/06/12 00:04:13;;;;;;;7.10;2.70;;;;;;;22.16;54.60;99989.23;108277;1285;22020;-60
2023/06/12 00:06:39;;;;;;;6.90;2.80;;;;;;;22.12;54.66;99992.15;108185;1277;21995;-60
2023/06/12 00:09:05;;;;;;;5.40;2.60;;;;;;;22.10;54.86;99990.15;108127;1280;21988;-68
2023/06/12 00:11:32;;;;;;;6.30;2.60;;;;;;;22.07;54.87;99991.25;108162;1281;21999;-60
2023/06/12 00:13:58;;;;;;;6.80;3.10;;;;;;;22.04;54.94;99991.45;108134;1286;22004;-67
2023/06/12 00:16:25;;;;;;;9.80;2.90;;;;;;;22.02;55.16;99993.02;108137;1286;21995;-60
2023/06/12 00:18:52;;;;;;;10.70;2.60;;;;;;;22.00;55.08;99993.70;108123;1277;23754;-60
2023/06/12 00:21:19;;;;;;;11.30;2.70;;;;;;;21.99;55.09;99997.27;108122;1286;22526;-67
2023/06/12 00:23:45;;;;;;;8.90;2.90;;;;;;;22.02;55.04;99991.55;108149;1286;21989;-67
2023/06/12 00:26:11;;;;;;;5.50;2.60;;;;;;;22.16;54.81;99992.79;108128;1281;21986;-60
2023/06/12 00:28:37;;;;;;;5.90;2.60;;;;;;;22.19;54.53;99992.44;108168;1280;21997;-60
2023/06/12 00:31:03;;;;;;;7.40;2.40;;;;;;;22.19;54.70;99993.88;108115;1286;21998;-60
2023/06/12 00:33:28;;;;;;;8.60;2.90;;;;;;;22.17;54.90;99990.77;108217;1281;22000;-60
2023/06/12 00:35:54;;;;;;;5.60;2.60;;;;;;;22.15;54.60;99988.23;108179;1285;22029;-68
2023/06/12 00:38:20;;;;;;;6.10;2.70;;;;;;;22.13;54.49;99985.64;107973;1280;22047;-60
2023/06/12 00:40:46;;;;;;;5.50;2.50;;;;;;;22.12;54.55;99988.19;108132;1277;21986;-68
2023/06/12 00:43:12;;;;;;;4.80;3.00;;;;;;;22.12;54.63;99989.83;108135;1278;22011;-60
2023/06/12 00:45:37;;;;;;;6.80;2.40;;;;;;;22.10;54.80;99994.79;108209;1284;21989;-60
2023/06/12 00:48:03;;;;;;;8.50;2.60;;;;;;;22.07;54.65;99995.55;108135;1286;21991;-68
2023/06/12 00:50:29;;;;;;;6.00;2.90;;;;;;;22.03;54.69;99995.60;108262;1281;22191;-68
2023/06/12 00:52:56;;;;;;;6.60;2.40;;;;;;;21.99;54.70;99993.37;108098;1286;21994;-60
2023/06/12 00:55:22;;;;;;;5.40;2.40;;;;;;;21.86;55.23;99996.38;108142;1286;21985;-62
2023/06/12 00:57:47;;;;;;;5.60;2.60;;;;;;;21.78;55.66;100000.45;108128;1284;21993;-59
2023/06/12 01:00:17;;;;;;;4.70;2.40;;;;;;;21.75;55.69;100002.98;108125;1280;21988;-68
2023/06/12 01:02:49;;;;;;;5.90;2.10;;;;;;;21.74;55.90;99999.14;108120;1278;21983;-68
2023/06/12 01:05:32;;;;;;;6.00;2.10;;;;;;;21.75;55.79;99999.45;108128;1280;21995;-68
2023/06/12 01:08:07;;;;;;;6.70;2.30;;;;;;;21.76;55.83;99997.55;108112;1284;23149;-60
2023/06/12 01:10:38;;;;;;;6.90;2.00;;;;;;;21.78;55.89;99999.75;108141;1286;21990;-60
2023/06/12 01:13:04;;;;;;;5.80;2.50;;;;;;;21.77;55.86;99998.53;108120;1277;21992;-60
2023/06/12 01:15:29;;;;;;;5.30;2.70;;;;;;;21.77;56.12;99995.02;108119;1283;21992;-62
2023/06/12 01:17:58;;;;;;;4.60;2.30;;;;;;;21.76;56.09;99996.31;108150;1282;21989;-60
2023/06/12 01:20:24;;;;;;;4.80;2.20;;;;;;;21.75;56.16;99997.10;108158;1286;21996;-61
2023/06/12 01:22:57;;;;;;;4.50;2.00;;;;;;;21.72;56.12;99996.95;108317;1276;21985;-70
2023/06/12 01:25:43;;;;;;;5.50;2.20;;;;;;;21.73;56.24;99998.28;108130;1286;23609;-60
2023/06/12 01:28:21;;;;;;;6.70;2.10;;;;;;;21.76;55.86;99996.66;108038;1286;21991;-69
2023/06/12 01:31:14;;;;;;;4.30;2.30;;;;;;;21.69;56.29;100001.91;108218;1280;23638;-70
2023/06/12 01:33:42;;;;;;;4.10;2.00;;;;;;;21.67;56.42;100002.41;108196;1283;22040;-59
2023/06/12 01:36:10;;;;;;;5.40;2.40;;;;;;;21.67;56.63;100008.33;108193;1280;21983;-68
2023/06/12 01:38:35;;;;;;;5.90;2.50;;;;;;;21.64;56.88;100007.40;108157;1277;21987;-67
2023/06/12 01:41:02;;;;;;;5.20;2.30;;;;;;;21.62;56.79;100010.60;107863;1283;21992;-68
2023/06/12 01:43:28;;;;;;;7.10;2.60;;;;;;;21.63;56.99;100017.88;107911;1287;21956;-68
2023/06/12 01:45:54;;;;;;;5.50;2.20;;;;;;;21.63;57.06;100023.95;108134;1285;22024;-67
2023/06/12 01:48:20;;;;;;;5.30;2.30;;;;;;;21.62;57.18;100025.40;108109;1284;22028;-66
2023/06/12 01:50:46;;;;;;;11.10;3.40;;;;;;;21.62;56.99;100025.98;108116;1284;21987;-59
2023/06/12 01:53:13;;;;;;;4.10;2.10;;;;;;;21.62;57.02;100023.64;108122;1287;21993;-67
2023/06/12 01:55:41;;;;;;;7.00;2.70;;;;;;;21.61;57.11;100021.71;108145;1280;21993;-67
2023/06/12 01:58:08;;;;;;;5.50;2.00;;;;;;;21.61;56.97;100023.17;108114;1278;22043;-59
2023/06/12 02:00:35;;;;;;;7.70;2.20;;;;;;;21.60;57.08;100025.73;108193;1283;22648;-59
2023/06/12 02:03:01;;;;;;;6.50;2.60;;;;;;;21.58;56.86;100027.77;108196;1283;21992;-60
2023/06/12 02:05:27;;;;;;;4.90;2.20;;;;;;;21.57;56.92;100027.17;108167;1283;21987;-68
2023/06/12 02:07:52;;;;;;;7.40;2.70;;;;;;;21.56;57.00;100028.27;108134;1280;22026;-68
2023/06/12 02:10:18;;;;;;;5.10;2.30;;;;;;;21.56;56.96;100029.50;108132;1277;22629;-68
2023/06/12 02:12:44;;;;;;;6.00;2.80;;;;;;;21.55;56.85;100034.94;108071;1286;21988;-59
2023/06/12 02:15:11;;;;;;;8.60;2.50;;;;;;;21.51;56.93;100041.02;108074;1280;21989;-60
2023/06/12 02:17:37;;;;;;;6.00;2.00;;;;;;;21.48;56.88;100041.09;108115;1280;23165;-60
2023/06/12 02:20:04;;;;;;;5.40;2.20;;;;;;;21.44;57.02;100043.27;108180;1286;21983;-62
2023/06/12 02:22:30;;;;;;;10.20;2.50;;;;;;;21.40;56.94;100042.84;108314;1286;22004;-60
2023/06/12 02:24:56;;;;;;;7.90;2.30;;;;;;;21.36;57.04;100038.78;108258;1278;22047;-60
2023/06/12 02:27:23;;;;;;;5.20;1.90;;;;;;;21.33;57.11;100033.98;108068;1282;21986;-60
2023/06/12 02:29:49;;;;;;;9.10;2.40;;;;;;;21.30;57.28;100034.69;108089;1286;21997;-69
2023/06/12 02:32:14;;;;;;;5.50;2.10;;;;;;;21.28;57.04;100038.41;108081;1286;22021;-69
2023/06/12 02:34:40;;;;;;;9.90;3.60;;;;;;;21.25;57.12;100041.61;108050;1280;21982;-69
2023/06/12 02:37:08;;;;;;;4.70;2.00;;;;;;;21.25;57.39;100043.39;108097;1284;22027;-60
2023/06/12 02:39:34;;;;;;;9.70;2.40;;;;;;;21.24;57.44;100044.30;108157;1277;21996;-69
2023/06/12 02:42:00;;;;;;;10.20;2.40;;;;;;;21.25;57.49;100047.45;108156;1280;21997;-69
2023/06/12 02:44:26;;;;;;;7.20;2.00;;;;;;;21.28;57.55;100048.08;108080;1286;21990;-61
2023/06/12 02:46:58;;;;;;;6.70;2.40;;;;;;;21.28;57.69;100049.64;108057;1284;22024;-61
2023/06/12 02:49:28;;;;;;;6.70;2.20;;;;;;;21.28;57.76;100050.02;108100;1286;23747;-61
2023/06/12 02:51:54;;;;;;;7.40;2.10;;;;;;;21.28;57.75;100049.83;108046;1278;22026;-69
2023/06/12 02:54:23;;;;;;;4.20;2.10;;;;;;;21.30;57.82;100051.85;108112;1278;21987;-60
2023/06/12 02:56:48;;;;;;;6.70;2.00;;;;;;;21.32;57.86;100049.02;108186;1284;24044;-60
2023/06/12 02:59:15;;;;;;;8.00;2.80;;;;;;;21.47;57.45;100048.83;108099;1277;21984;-60
2023/06/12 03:01:43;;;;;;;3.10;2.10;;;;;;;21.55;57.18;100048.15;108222;1277;21994;-60
2023/06/12 03:04:18;;;;;;;8.50;2.20;;;;;;;21.57;57.17;100045.86;108100;1286;21985;-60
2023/06/12 03:06:45;;;;;;;3.40;2.30;;;;;;;21.59;57.05;100046.82;108146;1287;21989;-68
2023/06/12 03:09:11;;;;;;;4.60;1.90;;;;;;;21.62;57.33;100047.92;108125;1281;22792;-61
2023/06/12 03:11:37;;;;;;;10.30;2.50;;;;;;;21.65;57.32;100046.11;108104;1287;21989;-69
2023/06/12 03:14:05;;;;;;;4.80;1.90;;;;;;;21.68;57.13;100048.61;107997;1283;21994;-68
2023/06/12 03:16:32;;;;;;;3.80;1.70;;;;;;;21.69;57.07;100050.30;108130;1285;21991;-61
2023/06/12 03:18:58;;;;;;;6.50;2.10;;;;;;;21.70;57.34;100049.36;108196;1284;22025;-62
2023/06/12 03:21:24;;;;;;;3.60;1.70;;;;;;;21.71;57.15;100051.65;108152;1285;22025;-62
2023/06/12 03:23:50;;;;;;;6.80;2.50;;;;;;;21.71;57.28;100055.89;107957;1287;22008;-61
2023/06/12 03:26:17;;;;;;;4.40;1.70;;;;;;;21.73;57.68;100062.57;108171;1277;22458;-61
2023/06/12 03:28:44;;;;;;;5.70;3.30;;;;;;;21.63;58.04;100066.22;108144;1280;22050;-60
2023/06/12 03:31:10;;;;;;;10.40;3.40;;;;;;;21.60;58.32;100068.70;108203;1283;21995;-62
2023/06/12 03:33:35;;;;;;;5.80;2.20;;;;;;;21.63;58.30;100071.39;108214;1278;21991;-61
2023/06/12 03:36:01;;;;;;;6.20;2.00;;;;;;;21.66;58.40;100069.92;108136;1281;21986;-63
2023/06/12 03:38:27;;;;;;;6.90;2.10;;;;;;;21.71;58.34;100070.00;108118;1286;21990;-60
2023/06/12 03:40:53;;;;;;;4.80;2.40;;;;;;;21.77;58.45;100068.56;108168;1283;21992;-60
2023/06/12 03:43:19;;;;;;;4.90;2.40;;;;;;;21.82;58.46;100073.23;108168;1277;21994;-68
2023/06/12 03:45:45;;;;;;;6.20;2.20;;;;;;;21.88;58.62;100076.45;108138;1287;22027;-61
2023/06/12 03:48:11;;;;;;;5.70;2.10;;;;;;;21.93;58.63;100072.53;108123;1285;21994;-60
2023/06/12 03:50:36;;;;;;;4.10;2.40;;;;;;;21.97;58.61;100078.33;108134;1283;21998;-69
2023/06/12 03:53:02;;;;;;;3.10;1.80;;;;;;;22.05;58.55;100079.09;108129;1287;23819;-68
2023/06/12 03:55:28;;;;;;;5.00;2.40;;;;;;;22.24;58.14;100076.95;108136;1287;21992;-68
2023/06/12 03:57:53;;;;;;;3.90;1.80;;;;;;;22.34;57.83;100076.33;108190;1287;22027;-69
2023/06/12 04:00:20;;;;;;;6.40;2.10;;;;;;;22.41;57.50;100075.86;108163;1278;21990;-68
2023/06/12 04:02:46;;;;;;;9.10;2.30;;;;;;;22.43;57.71;100078.97;108233;1287;21998;-60
2023/06/12 04:05:12;;;;;;;18.90;2.80;;;;;;;22.47;57.60;100080.68;108171;1283;22192;-61
2023/06/12 04:07:38;;;;;;;4.60;2.10;;;;;;;22.50;57.49;100081.35;108017;1281;21986;-68
2023/06/12 04:10:05;;;;;;;7.20;2.20;;;;;;;22.54;57.58;100080.92;108089;1280;23501;-59
2023/06/12 04:12:31;;;;;;;5.10;2.00;;;;;;;22.57;57.49;100080.51;108180;1287;21983;-68
2023/06/12 04:14:57;;;;;;;13.90;2.70;;;;;;;22.61;57.36;100083.15;108109;1287;21992;-68
2023/06/12 04:17:23;;;;;;;9.60;2.40;;;;;;;22.63;57.26;100084.10;108118;1285;21988;-61
2023/06/12 04:19:49;;;;;;;7.40;2.00;;;;;;;22.64;57.28;100085.44;108133;1279;21986;-67
2023/06/12 04:22:16;;;;;;;5.30;2.20;;;;;;;22.64;57.17;100087.42;108168;1284;21999;-66
2023/06/12 04:24:43;;;;;;;2.90;2.00;;;;;;;22.63;57.22;100088.54;108168;1287;22019;-60
2023/06/12 04:27:10;;;;;;;6.60;1.90;;;;;;;22.64;57.34;100090.99;108143;1278;22024;-68
2023/06/12 04:29:40;;;;;;;4.20;2.00;;;;;;;22.67;57.56;100096.15;108148;1287;21986;-67
2023/06/12 04:32:06;;;;;;;3.50;2.20;;;;;;;22.72;57.49;100098.85;108199;1277;21986;-68
2023/06/12 04:34:39;;;;;;;3.60;1.90;;;;;;;22.79;57.70;100098.06;108146;1280;21996;-68
2023/06/12 04:37:08;;;;;;;5.70;2.40;;;;;;;22.84;57.87;100098.75;108115;1287;21992;-61
2023/06/12 04:39:37;;;;;;;4.60;2.60;;;;;;;22.94;58.03;100097.52;108135;1287;21993;-67
2023/06/12 04:42:08;;;;;;;4.90;2.30;;;;;;;23.04;57.90;100098.45;108126;1277;22026;-60
2023/06/12 04:44:34;;;;;;;4.60;2.00;;;;;;;23.14;57.93;100097.02;108130;1281;23609;-60
2023/06/12 04:47:08;;;;;;;4.20;1.70;;;;;;;23.26;57.60;100096.06;108191;1281;22018;-68
2023/06/12 04:49:35;;;;;;;6.20;1.90;;;;;;;23.38;57.61;100098.12;108067;1286;21986;-60
2023/06/12 04:52:05;;;;;;;9.70;2.20;;;;;;;23.50;57.42;100099.61;108081;1286;21999;-60
2023/06/12 04:54:35;;;;;;;2.70;1.90;;;;;;;23.59;57.28;100093.92;108111;1281;21997;-60
2023/06/12 04:57:07;;;;;;;4.90;2.30;;;;;;;23.70;57.24;100090.32;108176;1286;21992;-68
2023/06/12 04:59:37;;;;;;;4.70;2.30;;;;;;;23.79;57.39;100088.21;108286;1284;22042;-60
2023/06/12 05:02:03;;;;;;;5.60;2.30;;;;;;;23.94;57.56;100088.44;108085;1286;22024;-67
2023/06/12 05:04:30;;;;;;;6.20;2.60;;;;;;;24.10;57.59;100087.63;108101;1286;21987;-67
2023/06/12 05:06:57;;;;;;;3.20;2.30;;;;;;;24.32;56.94;100085.66;108150;1286;22063;-67
2023/06/12 05:09:23;;;;;;;3.70;2.20;;;;;;;24.56;56.28;100081.65;108126;1281;24335;-67
2023/06/12 05:11:49;;;;;;;10.90;2.30;;;;;;;24.71;56.07;100082.71;108136;1277;22011;-60
2023/06/12 05:14:14;;;;;;;6.30;2.80;;;;;;;24.81;55.74;100078.61;108136;1286;22024;-68
2023/06/12 05:16:40;;;;;;;9.30;2.70;;;;;;;24.89;55.75;100072.73;108143;1286;23006;-67
2023/06/12 05:19:06;;;;;;;5.30;3.10;;;;;;;25.00;55.25;100067.80;108086;1280;21989;-61
2023/06/12 05:21:32;;;;;;;6.80;3.10;;;;;;;25.00;55.94;100061.34;108084;1286;21997;-60
2023/06/12 05:23:57;;;;;;;7.10;3.10;;;;;;;25.11;56.17;100055.08;108051;1286;22311;-68
2023/06/12 05:26:23;;;;;;;9.20;3.10;;;;;;;25.25;55.58;100052.95;108013;1280;22456;-61
2023/06/12 05:28:49;;;;;;;5.40;3.00;;;;;;;25.34;55.51;100053.65;108053;1286;21955;-67
2023/06/12 05:31:14;;;;;;;11.10;3.20;;;;;;;25.44;55.39;100053.92;108038;1286;22771;-60
2023/06/12 05:33:40;;;;;;;8.30;2.90;;;;;;;25.57;55.15;100057.45;108034;1284;22015;-61
2023/06/12 05:36:07;;;;;;;6.20;3.80;;;;;;;25.73;54.87;100063.83;108066;1286;21994;-60
2023/06/12 05:38:33;;;;;;;7.60;4.00;;;;;;;25.88;54.36;100064.61;108092;1277;22027;-66
2023/06/12 05:40:59;;;;;;;6.50;3.00;;;;;;;26.03;54.08;100063.81;108136;1278;22021;-60
2023/06/12 05:43:24;;;;;;;9.50;4.10;;;;;;;26.10;53.21;100065.55;108104;1281;22847;-67
2023/06/12 05:45:50;;;;;;;11.40;4.80;;;;;;;26.20;53.42;100065.27;108112;1287;21985;-70
2023/06/12 05:48:18;;;;;;;7.60;3.80;;;;;;;26.35;53.07;100066.04;108111;1281;23612;-67
2023/06/12 05:50:44;;;;;;;5.60;3.80;;;;;;;26.43;52.63;100068.08;108162;1284;21997;-67
2023/06/12 05:53:11;;;;;;;11.00;4.10;;;;;;;26.49;52.64;100069.73;108099;1285;22050;-60
2023/06/12 05:55:37;;;;;;;8.10;3.80;;;;;;;26.57;52.76;100071.19;108078;1286;22011;-67
2023/06/12 05:58:03;;;;;;;6.50;3.30;;;;;;;26.62;52.83;100071.68;108082;1286;21994;-60
2023/06/12 06:00:29;;;;;;;12.00;5.60;;;;;;;26.78;52.57;100073.73;107891;1286;23638;-60
2023/06/12 06:02:54;;;;;;;8.10;5.60;;;;;;;27.03;51.50;100067.14;108149;1283;21985;-60
2023/06/12 06:05:20;;;;;;;7.10;4.40;;;;;;;27.18;51.09;100063.13;108099;1286;23641;-66
2023/06/12 06:07:50;;;;;;;10.90;5.60;;;;;;;27.31;51.05;100061.72;108148;1278;22023;-69
2023/06/12 06:10:15;;;;;;;6.00;4.80;;;;;;;27.36;51.04;100063.62;108270;1278;21989;-67
2023/06/12 06:12:41;;;;;;;7.90;6.20;;;;;;;27.54;50.96;100068.10;108110;1286;21989;-60
2023/06/12 06:15:08;;;;;;;8.70;6.90;;;;;;;27.74;50.56;100064.92;108077;1279;21992;-60
2023/06/12 06:17:33;;;;;;;9.50;7.40;;;;;;;27.87;49.93;100059.94;108076;1277;23051;-67
2023/06/12 06:19:59;;;;;;;10.10;6.00;;;;;;;28.01;49.21;100058.20;108058;1286;22213;-66
2023/06/12 06:22:25;;;;;;;13.10;5.60;;;;;;;28.01;48.80;100059.27;108088;1280;21991;-68
2023/06/12 06:24:51;;;;;;;19.30;9.90;;;;;;;27.98;49.01;100059.02;108092;1278;21998;-61
2023/06/12 06:27:17;;;;;;;11.70;7.00;;;;;;;27.98;49.64;100059.00;108168;1286;21999;-67
2023/06/12 06:29:43;;;;;;;9.60;8.40;;;;;;;28.13;49.60;100060.94;108079;1286;22023;-66
2023/06/12 06:32:08;;;;;;;13.60;10.80;;;;;;;28.25;49.03;100058.39;108076;1286;21993;-61
2023/06/12 06:34:34;;;;;;;9.70;8.60;;;;;;;28.38;48.61;100057.00;108061;1284;22208;-66
2023/06/12 06:37:00;;;;;;;11.70;8.10;;;;;;;28.55;49.05;100052.00;108078;1285;22166;-60
2023/06/12 06:39:26;;;;;;;19.80;14.60;;;;;;;28.75;47.77;100056.27;108076;1286;21989;-63
2023/06/12 06:41:52;;;;;;;17.30;9.70;;;;;;;28.90;46.61;100055.42;108091;1284;21986;-60
2023/06/12 06:44:17;;;;;;;20.70;13.10;;;;;;;28.94;45.93;100054.19;108089;1286;22027;-68
2023/06/12 06:46:43;;;;;;;13.30;11.60;;;;;;;28.80;46.30;100058.36;108177;1286;21996;-61
2023/06/12 06:49:09;;;;;;;15.70;12.50;;;;;;;28.82;46.50;100054.83;108065;1278;21984;-60
2023/06/12 06:51:35;;;;;;;16.80;12.40;;;;;;;28.87;46.24;100050.71;108165;1286;22956;-68
2023/06/12 06:54:00;;;;;;;18.80;14.00;;;;;;;28.95;46.28;100051.88;108047;1284;21987;-61
2023/06/12 06:56:26;;;;;;;20.50;14.40;;;;;;;29.06;45.99;100049.40;108072;1286;21986;-60
2023/06/12 06:58:52;;;;;;;26.80;20.40;;;;;;;29.16;45.55;100046.30;108050;1286;21985;-66
2023/06/12 07:01:18;;;;;;;20.50;14.80;;;;;;;29.27;44.93;100046.53;108031;1281;21985;-67
2023/06/12 07:03:44;;;;;;;18.40;15.30;;;;;;;29.28;45.03;100042.70;108008;1286;21983;-68
2023/06/12 07:06:09;;;;;;;23.40;14.80;;;;;;;29.36;45.35;100039.67;108020;1281;22003;-66
2023/06/12 07:08:35;;;;;;;26.50;17.50;;;;;;;29.57;45.57;100035.88;108252;1285;21984;-60
2023/06/12 07:11:01;;;;;;;28.50;22.10;;;;;;;29.81;45.35;100032.43;108041;1286;204362;-60
2023/06/12 07:13:26;;;;;;;17.40;13.70;;;;;;;30.00;44.50;100032.58;108040;1286;21984;-60
2023/06/12 07:15:52;;;;;;;28.90;19.70;;;;;;;30.07;44.29;100029.36;108292;1286;21987;-60
2023/06/12 07:18:18;;;;;;;28.90;19.10;;;;;;;30.08;44.06;100031.04;108128;1280;21992;-61
2023/06/12 07:20:44;;;;;;;33.20;20.80;;;;;;;30.08;43.66;100033.21;108141;1286;21992;-68
2023/06/12 07:23:10;;;;;;;28.70;21.90;;;;;;;30.11;43.58;100035.66;107957;1280;21986;-68
2023/06/12 07:25:36;;;;;;;40.70;27.70;;;;;;;30.12;42.79;100036.30;108053;1285;21996;-61
2023/06/12 07:28:02;;;;;;;50.00;31.00;;;;;;;29.98;42.30;100036.42;108127;1286;21986;-61
2023/06/12 07:30:28;;;;;;;48.40;32.90;;;;;;;29.84;42.82;100036.27;108042;1286;21994;-61
2023/06/12 07:32:54;;;;;;;41.80;32.10;;;;;;;29.76;42.64;100034.08;108094;1284;21996;-62
2023/06/12 07:35:21;;;;;;;43.40;30.90;;;;;;;29.63;41.78;100034.44;108100;1286;21989;-60
2023/06/12 07:37:46;;;;;;;39.10;24.30;;;;;;;29.45;42.17;100037.77;108047;1286;21984;-68
2023/06/12 07:40:12;;;;;;;36.70;25.10;;;;;;;29.28;42.27;100036.27;108199;1286;21989;-68
2023/06/12 07:42:38;;;;;;;29.60;23.50;;;;;;;29.18;42.61;100033.30;108189;1285;24468;-62
2023/06/12 07:45:05;;;;;;;26.50;23.00;;;;;;;29.19;42.94;100031.52;108031;1284;21979;-62
2023/06/12 07:47:30;;;;;;;47.60;32.40;;;;;;;29.28;42.84;100027.30;108079;1286;21986;-61
2023/06/12 07:49:56;;;;;;;39.60;27.20;;;;;;;29.35;42.37;100029.88;108047;1286;21987;-60
2023/06/12 07:52:22;;;;;;;30.30;26.50;;;;;;;29.34;42.13;100030.99;108170;1277;21987;-67
2023/06/12 07:54:49;;;;;;;35.10;26.40;;;;;;;29.33;41.78;100029.13;108139;1286;22009;-60
2023/06/12 07:57:14;;;;;;;40.70;28.80;;;;;;;29.31;41.53;100032.45;108247;1286;23049;-60
2023/06/12 07:59:42;;;;;;;40.00;25.80;;;;;;;29.14;41.51;100032.94;108171;1286;21979;-67
2023/06/12 08:02:09;;;;;;;41.40;30.00;;;;;;;28.99;41.51;100027.35;108099;1286;21984;-69
2023/06/12 08:04:39;;;;;;;33.40;28.50;;;;;;;28.84;41.66;100025.29;108104;1286;21993;-68
2023/06/12 08:07:05;;;;;;;35.90;25.00;;;;;;;28.82;41.97;100026.57;108065;1286;21967;-62
2023/06/12 08:09:31;;;;;;;24.30;18.40;;;;;;;28.87;42.20;100023.73;108057;1286;21984;-62
2023/06/12 08:11:57;;;;;;;29.20;20.50;;;;;;;28.92;41.84;100024.52;108127;1286;21986;-68
2023/06/12 08:14:22;;;;;;;31.90;20.70;;;;;;;28.94;41.72;100023.17;108183;1286;22171;-61
2023/06/12 08:16:49;;;;;;;27.10;22.30;;;;;;;29.02;41.95;100022.58;108269;1284;22242;-61
2023/06/12 08:19:14;;;;;;;34.30;24.30;;;;;;;29.15;41.53;100022.41;108092;1286;21996;-61
2023/06/12 08:21:41;;;;;;;31.40;23.40;;;;;;;29.17;40.96;100021.15;108097;1286;21966;-61
2023/06/12 08:24:12;;;;;;;36.80;25.90;;;;;;;29.14;41.14;100019.62;108324;1286;21994;-62
2023/06/12 08:26:38;;;;;;;28.60;19.00;;;;;;;29.15;41.28;100016.24;108342;1286;21992;-62
2023/06/12 08:29:04;;;;;;;25.50;20.70;;;;;;;29.16;41.10;100014.20;108170;1284;23637;-63
2023/06/12 08:31:33;;;;;;;24.90;20.00;;;;;;;29.15;41.01;100015.10;108263;1286;21985;-67
2023/06/12 08:33:59;;;;;;;38.90;26.60;;;;;;;29.15;41.20;100015.71;108218;1278;22459;-61
2023/06/12 08:36:26;;;;;;;27.20;21.60;;;;;;;29.16;41.11;100011.98;108118;1281;21997;-62
2023/06/12 08:38:52;;;;;;;30.50;22.70;;;;;;;29.19;40.76;100012.04;108035;1286;23053;-61
2023/06/12 08:41:18;;;;;;;42.00;28.40;;;;;;;29.19;40.64;100012.98;108029;1286;22001;-67
2023/06/12 08:43:43;;;;;;;30.90;23.90;;;;;;;29.15;40.54;100014.27;110061;1286;21918;-70
2023/06/12 08:46:09;;;;;;;48.90;30.30;;;;;;;29.07;40.68;100012.70;110043;1286;21928;-63
2023/06/12 08:48:34;;;;;;;41.10;30.40;;;;;;;29.05;41.04;100006.89;109288;1286;24313;-69
2023/06/12 08:51:02;;;;;;;47.20;31.60;;;;;;;29.05;40.76;100008.20;108133;1286;21991;-61
2023/06/12 08:53:28;;;;;;;50.10;35.10;;;;;;;29.03;40.58;100012.14;108108;1283;21989;-60
2023/06/12 08:55:55;;;;;;;33.40;24.80;;;;;;;28.98;40.39;100008.85;108396;1286;22012;-61
2023/06/12 08:58:21;;;;;;;27.20;23.80;;;;;;;28.93;40.64;100007.83;108515;1277;22000;-61
2023/06/12 09:00:47;;;;;;;34.40;26.10;;;;;;;28.90;40.58;100008.04;108597;1286;22018;-61
2023/06/12 09:03:14;;;;;;;41.10;31.50;;;;;;;28.86;40.62;100007.87;108629;1286;21982;-62
2023/06/12 09:05:40;;;;;;;38.10;25.60;;;;;;;28.82;40.64;100009.16;108478;1286;23804;-62
2023/06/12 09:08:06;;;;;;;33.10;24.10;;;;;;;28.77;40.63;100009.75;108371;1286;22001;-67
2023/06/12 09:10:32;;;;;;;27.60;23.00;;;;;;;28.77;40.93;100011.72;108505;1286;24326;-62
2023/06/12 09:12:59;;;;;;;32.30;23.20;;;;;;;28.78;40.98;100013.82;108370;1286;23608;-68
2023/06/12 09:15:25;;;;;;;35.70;22.70;;;;;;;28.82;41.09;100006.05;108385;1286;23729;-67
2023/06/12 09:17:52;;;;;;;33.50;21.30;;;;;;;28.90;41.14;100004.03;108123;1286;21969;-61
2023/06/12 09:20:33;;;;;;;25.00;21.60;;;;;;;28.96;41.13;100001.59;108105;1287;21986;-60
2023/06/12 09:23:00;;;;;;;32.50;22.20;;;;;;;29.08;41.15;100006.10;108129;1280;21988;-67
2023/06/12 09:25:26;;;;;;;35.90;21.30;;;;;;;29.20;40.78;100007.31;108158;1287;21988;-62
2023/06/12 09:27:52;;;;;;;38.70;24.80;;;;;;;29.23;40.17;100002.78;108146;1286;21989;-61
2023/06/12 09:30:18;;;;;;;34.80;24.70;;;;;;;29.18;40.05;100005.45;108126;1287;22770;-67
2023/06/12 09:32:44;;;;;;;44.10;27.40;;;;;;;29.13;40.39;100004.16;108107;1287;21994;-61
2023/06/12 09:35:11;;;;;;;29.70;22.50;;;;;;;29.12;40.06;100007.15;107990;1287;21999;-61
2023/06/12 09:37:38;;;;;;;38.10;24.70;;;;;;;29.10;39.70;100007.02;108112;1287;21997;-61
2023/06/12 09:40:14;;;;;;;34.70;27.20;;;;;;;29.14;40.08;100005.52;108130;1287;21988;-62
2023/06/12 09:42:41;;;;;;;29.20;21.60;;;;;;;29.20;39.92;100002.75;108204;1283;21986;-67
2023/06/12 09:45:11;;;;;;;40.10;26.40;;;;;;;29.19;39.91;100001.73;108147;1283;21996;-68
2023/06/12 09:47:45;;;;;;;27.60;21.10;;;;;;;29.20;39.86;100001.72;108154;1286;21986;-66
2023/06/12 09:50:12;;;;;;;32.60;23.00;;;;;;;29.24;39.56;100000.87;108182;1279;22071;-65
2023/06/12 09:52:40;;;;;;;35.70;26.20;;;;;;;29.21;39.58;99997.33;108142;1286;21991;-59
2023/06/12 09:55:06;;;;;;;32.00;22.90;;;;;;;29.22;39.73;99994.98;108162;1286;21993;-65
2023/06/12 09:57:36;;;;;;;32.50;21.70;;;;;;;29.24;39.68;99993.88;108154;1286;21988;-59
2023/06/12 10:00:05;;;;;;;36.70;23.90;;;;;;;29.24;39.71;100004.33;108137;1281;21996;-69
2023/06/12 10:02:31;;;;;;;26.40;19.20;;;;;;;29.20;39.49;100005.48;108134;1286;22641;-66
2023/06/12 10:05:05;;;;;;;38.60;24.70;;;;;;;29.07;39.44;100002.58;107893;1280;21987;-66
2023/06/12 10:07:41;;;;;;;32.10;22.40;;;;;;;29.01;39.48;100007.64;108104;1284;21987;-60
2023/06/12 10:10:07;;;;;;;34.10;23.30;;;;;;;28.93;39.55;100007.32;108223;1277;22004;-69
2023/06/12 10:12:34;;;;;;;32.30;22.10;;;;;;;28.85;39.59;100004.27;108137;1284;22127;-62
2023/06/12 10:15:03;;;;;;;18.90;15.70;;;;;;;28.78;39.37;100006.37;110056;1283;21914;-69
2023/06/12 10:17:29;;;;;;;26.30;23.00;;;;;;;28.75;39.59;100003.05;110087;1283;21951;-60
2023/06/12 10:19:55;;;;;;;33.90;21.90;;;;;;;28.74;39.72;100005.80;110034;1283;22338;-67
2023/06/12 10:22:20;;;;;;;31.00;21.80;;;;;;;28.73;39.91;99999.64;109233;1277;22944;-60
2023/06/12 10:24:46;;;;;;;25.10;19.50;;;;;;;28.85;40.12;99998.13;108087;1286;21986;-66
2023/06/12 10:27:12;;;;;;;30.50;17.80;;;;;;;28.98;39.87;100002.00;108100;1286;21989;-66
2023/06/12 10:29:38;;;;;;;37.20;23.70;;;;;;;29.00;39.85;100006.11;108128;1276;23715;-65
2023/06/12 11:55:21;;;;;;;71.00;46.90;;;;;;;27.98;52.09;99988.73;108547;1273;550233;-66
2023/06/12 11:57:48;;;;;;;75.40;45.20;;;;;;;30.72;43.34;99979.16;108953;1267;22143;-66
2023/06/12 12:00:16;;;;;;;56.20;37.70;;;;;;;31.12;41.96;99985.22;108908;1267;21972;-64
2023/06/12 12:02:44;;;;;;;70.60;40.40;;;;;;;31.32;40.87;99990.14;108910;1276;23041;-66
2023/06/12 12:05:11;;;;;;;74.40;52.20;;;;;;;31.25;40.59;99986.33;108897;1273;23501;-66
2023/06/12 12:07:40;;;;;;;83.90;52.60;;;;;;;31.25;40.14;99986.16;108801;1267;160215;-69
2023/06/12 12:10:10;;;;;;;84.10;54.50;;;;;;;31.27;39.81;99987.48;109020;1274;21983;-60
2023/06/12 12:12:49;;;;;;;69.80;48.70;;;;;;;31.27;39.83;99987.05;108987;1267;21978;-61
2023/06/12 12:15:20;;;;;;;86.10;56.50;;;;;;;31.37;39.44;99987.65;109063;1269;23050;-61
2023/06/12 12:17:47;;;;;;;83.30;51.00;;;;;;;31.46;39.42;99988.19;109260;1264;21975;-65
2023/06/12 12:20:18;;;;;;;73.00;57.10;;;;;;;31.61;39.53;99984.94;109106;1273;21966;-67
2023/06/12 12:22:51;;;;;;;93.70;61.90;;;;;;;31.86;39.11;99988.79;108999;1274;21983;-66
2023/06/12 12:25:22;;;;;;;88.10;59.70;;;;;;;31.98;38.75;99992.04;108938;1273;21979;-67
2023/06/12 12:27:51;;;;;;;108.60;72.80;;;;;;;31.90;38.78;99990.20;108945;1267;21977;-59
2023/06/12 12:30:16;;;;;;;90.40;62.30;;;;;;;31.80;38.73;99994.54;108970;1271;21983;-67
2023/06/12 12:32:46;;;;;;;90.20;57.70;;;;;;;31.82;38.22;99987.05;108932;1273;22170;-67
2023/06/12 12:35:13;;;;;;;106.00;69.90;;;;;;;31.59;37.83;99991.54;109080;1274;23634;-60